Hucknall, United Kingdom
Current Conditions -  °F | °C
As of 3:50 PM on Friday 28 Nov 2014 (Local Time) from EGNX Reporting Station
Haze Haze  
Wind Chill: 50°   Ceiling: 600
Heat Index: 50°   Visibility: 1.2mi
Dew Point: 50°   Wind: 12mph
Humidity: 100%   Direction: 60°ENE
Pressure: 29.68"   Gusts: NA
Location:  53.04°N, 1.2°W
Report Text: EGNX 281550Z 06010KT 2000 BR SCT002 BKN006 10/10 Q1005
Loading
Personal Weather Stations






























Interactive Weather Map New forecast layout! Learn more

10-Day Weather Forecast

Advertisements
Track Severe Weather on mobile